Terminal Aerodrome Forecast
Issued by NWS Des Moines, IA

Current Version | Previous Version | Text Only | Print | Product List | Glossary On
Versions: 1 2 3 4 5 6 7 8 9 10 11 12 13 14 15 16 17 18 19 20 21 22 23 24 25 26 27 28 29 30 31 32 33 34 35 36 37 38 39 40
000
FTUS43 KDMX 241402 AAD
TAFDSM
TAF AMD
KDSM 241402Z 2414/2512 11012G18KT 4SM -RA BR OVC007
     FM241800 17012KT 6SM BR SCT009 BKN025
     FM250100 15008KT 5SM -TSRA BR BKN020CB
     FM250300 VRB05KT 3SM RA BKN006 OVC012
     FM250700 21005KT 5SM -RA BKN009=

USA.gov is the U.S. government's official web portal to all federal, state and local government web resources and services.